Time;durP1;ratioP1;P1;durP2;ratioP2;P2;SDS_P1;SDS_P2;PMS_P1;PMS_P2;Temp;Humidity;BMP_temperature;BMP_pressure;BME280_temperature;BME280_humidity;BME280_pressure;Samples;Min_cycle;Max_cycle;Signal;HPM_P1;HPM_P2
2023/07/25 00:00:34;;;;;;;10.67;2.40;;;18.40;99.90;;;;;;7285597;19;20189;-77
2023/07/25 00:03:00;;;;;;;12.27;2.87;;;18.40;99.90;;;;;;7284274;19;20564;-77
2023/07/25 00:05:26;;;;;;;10.17;3.10;;;18.30;99.90;;;;;;7284551;19;20196;-77
2023/07/25 00:07:52;;;;;;;10.20;3.20;;;18.30;99.90;;;;;;7285084;19;20658;-76
2023/07/25 00:10:18;;;;;;;12.90;3.00;;;18.30;99.90;;;;;;7307472;19;20192;-77
2023/07/25 00:12:44;;;;;;;10.67;2.60;;;18.10;99.90;;;;;;7284395;19;20185;-77
2023/07/25 00:15:10;;;;;;;10.97;3.00;;;17.90;99.90;;;;;;7284289;19;20951;-77
2023/07/25 00:17:36;;;;;;;13.80;2.70;;;17.90;99.90;;;;;;7286264;19;20196;-78
2023/07/25 00:20:01;;;;;;;12.27;2.37;;;17.90;99.90;;;;;;7286286;19;20189;-78
2023/07/25 00:22:27;;;;;;;7.77;2.17;;;17.90;99.90;;;;;;7284105;19;20189;-78
2023/07/25 00:24:53;;;;;;;7.80;2.07;;;17.90;99.90;;;;;;7284821;19;20188;-77
2023/07/25 00:27:18;;;;;;;8.60;2.30;;;17.70;99.90;;;;;;7306013;19;20185;-77
2023/07/25 00:29:44;;;;;;;8.80;2.10;;;17.70;99.90;;;;;;7284407;19;20274;-77
2023/07/25 00:32:11;;;;;;;9.37;2.40;;;17.70;99.90;;;;;;7283213;19;20235;-78
2023/07/25 00:34:37;;;;;;;9.70;2.13;;;17.80;99.90;;;;;;7284578;19;20200;-77
2023/07/25 00:37:02;;;;;;;9.77;2.80;;;17.90;99.90;;;;;;7284058;19;20200;-77
2023/07/25 00:39:29;;;;;;;6.73;2.10;;;17.80;99.90;;;;;;7283298;19;20185;-77
2023/07/25 00:41:55;;;;;;;13.07;2.67;;;17.70;99.90;;;;;;7282397;19;20196;-77
2023/07/25 00:44:20;;;;;;;8.97;2.20;;;17.70;99.90;;;;;;7288559;19;20177;-77
2023/07/25 00:46:46;;;;;;;8.23;2.00;;;17.70;99.90;;;;;;7299583;19;20590;-77
2023/07/25 00:49:12;;;;;;;11.93;2.33;;;17.40;99.90;;;;;;7283985;19;20623;-76
2023/07/25 00:51:37;;;;;;;12.63;2.37;;;17.30;99.90;;;;;;7280663;19;20189;-76
2023/07/25 00:54:03;;;;;;;10.53;2.43;;;17.30;99.90;;;;;;7279845;19;20956;-77
2023/07/25 00:56:29;;;;;;;8.37;2.27;;;17.30;99.90;;;;;;7283450;19;20202;-77
2023/07/25 00:58:55;;;;;;;10.00;2.40;;;17.30;99.90;;;;;;7282152;19;20185;-77
2023/07/25 01:01:22;;;;;;;7.50;2.10;;;17.40;99.90;;;;;;7294787;19;20184;-77
2023/07/25 01:03:48;;;;;;;9.00;1.83;;;17.50;99.90;;;;;;7305677;19;20195;-77
2023/07/25 01:06:17;;;;;;;10.23;2.37;;;17.40;99.90;;;;;;7283091;19;20192;-77
2023/07/25 01:08:55;;;;;;;7.47;2.03;;;17.40;99.90;;;;;;7282881;19;20195;-77
2023/07/25 01:11:23;;;;;;;12.10;2.20;;;17.40;99.90;;;;;;7269699;19;20631;-77
2023/07/25 01:13:50;;;;;;;6.57;2.10;;;17.40;99.90;;;;;;7305835;19;20192;-78
2023/07/25 01:16:20;;;;;;;7.77;2.10;;;17.40;99.90;;;;;;7283280;19;20184;-78
2023/07/25 01:18:46;;;;;;;11.13;2.10;;;17.40;99.90;;;;;;7282517;19;20194;-78
2023/07/25 01:21:12;;;;;;;8.37;2.30;;;17.40;99.90;;;;;;7282670;19;20193;-78
2023/07/25 01:23:41;;;;;;;8.87;1.90;;;17.40;99.90;;;;;;7282447;19;20691;-78
2023/07/25 01:26:08;;;;;;;8.33;1.90;;;17.40;99.90;;;;;;7282967;19;20185;-78
2023/07/25 01:28:33;;;;;;;10.20;2.13;;;17.40;99.90;;;;;;7283899;19;20723;-78
2023/07/25 01:30:59;;;;;;;9.57;2.27;;;17.40;99.90;;;;;;7284302;19;20189;-78
2023/07/25 01:33:25;;;;;;;9.10;1.80;;;17.40;99.90;;;;;;7283665;19;20194;-78
2023/07/25 01:35:50;;;;;;;9.93;2.10;;;17.30;99.90;;;;;;7297868;19;20256;-77
2023/07/25 01:38:16;;;;;;;10.70;2.33;;;17.40;99.90;;;;;;7300271;19;20205;-77
2023/07/25 01:40:42;;;;;;;12.07;2.13;;;17.40;99.90;;;;;;7283243;19;20193;-78
2023/07/25 01:43:08;;;;;;;7.57;1.90;;;17.40;99.90;;;;;;7285696;19;20192;-78
2023/07/25 01:45:35;;;;;;;9.83;2.27;;;17.30;99.90;;;;;;7284535;19;20181;-78
2023/07/25 01:48:01;;;;;;;8.63;2.10;;;17.30;99.90;;;;;;7282913;19;20184;-77
2023/07/25 01:50:27;;;;;;;8.10;2.13;;;17.20;99.90;;;;;;7282763;19;20941;-77
2023/07/25 01:52:53;;;;;;;9.17;2.20;;;17.10;99.90;;;;;;7282152;19;20200;-77
2023/07/25 01:55:19;;;;;;;11.80;2.50;;;17.00;99.90;;;;;;7305534;19;20196;-78
2023/07/25 01:57:44;;;;;;;7.80;2.13;;;17.00;99.90;;;;;;7288897;19;20207;-78
2023/07/25 02:00:11;;;;;;;10.50;2.23;;;16.90;99.90;;;;;;7288859;19;20204;-77
2023/07/25 02:02:39;;;;;;;11.37;2.37;;;17.00;99.90;;;;;;7287466;19;20684;-78
2023/07/25 02:05:05;;;;;;;13.53;2.43;;;17.10;99.90;;;;;;7287243;19;20189;-78
2023/07/25 02:07:32;;;;;;;6.33;1.90;;;17.20;99.90;;;;;;7288028;19;20189;-77
2023/07/25 02:09:57;;;;;;;9.23;2.20;;;17.20;99.90;;;;;;7288360;19;20195;-77
2023/07/25 02:12:23;;;;;;;11.70;2.70;;;17.20;99.90;;;;;;7286926;19;20620;-77
2023/07/25 02:14:49;;;;;;;9.97;2.60;;;17.10;99.90;;;;;;7308941;19;20540;-77
2023/07/25 02:17:18;;;;;;;8.37;1.97;;;17.00;99.90;;;;;;7289336;19;20189;-77
2023/07/25 02:19:44;;;;;;;9.13;2.30;;;17.00;99.90;;;;;;7287978;19;20223;-78
2023/07/25 02:22:10;;;;;;;9.10;2.23;;;17.00;99.90;;;;;;7287718;19;20214;-77
2023/07/25 02:24:35;;;;;;;13.53;2.33;;;16.90;99.90;;;;;;7286841;19;20184;-77
2023/07/25 02:27:01;;;;;;;12.20;2.50;;;16.80;99.90;;;;;;7287697;19;20183;-77
2023/07/25 02:29:27;;;;;;;8.97;2.40;;;16.90;99.90;;;;;;7287409;19;20198;-77
2023/07/25 02:31:52;;;;;;;9.53;2.37;;;16.90;99.90;;;;;;7287748;19;20192;-77
2023/07/25 02:34:18;;;;;;;13.43;2.57;;;17.10;99.90;;;;;;7309572;19;20183;-77
2023/07/25 02:36:44;;;;;;;9.03;2.80;;;17.20;99.90;;;;;;7288326;19;20241;-77
2023/07/25 02:39:09;;;;;;;11.37;2.40;;;17.20;99.90;;;;;;7288878;19;20264;-77
2023/07/25 02:41:35;;;;;;;10.90;2.57;;;17.20;99.90;;;;;;7285831;19;20185;-78
2023/07/25 02:44:03;;;;;;;11.60;2.40;;;17.00;99.90;;;;;;7287877;19;20918;-77
2023/07/25 02:46:28;;;;;;;10.87;2.40;;;16.90;99.90;;;;;;7286114;19;20196;-77
2023/07/25 02:48:55;;;;;;;10.53;2.43;;;16.90;99.90;;;;;;7286841;19;20630;-77
2023/07/25 02:51:21;;;;;;;9.53;2.77;;;16.90;99.90;;;;;;7300363;19;20189;-77
2023/07/25 02:53:47;;;;;;;10.40;2.30;;;16.90;99.90;;;;;;7301982;19;20727;-78
2023/07/25 02:56:12;;;;;;;10.20;2.57;;;17.10;99.90;;;;;;7286951;19;20199;-78
2023/07/25 02:58:38;;;;;;;9.03;2.60;;;17.20;99.90;;;;;;7287584;19;20192;-78
2023/07/25 03:01:04;;;;;;;10.33;2.53;;;17.20;99.90;;;;;;7285517;19;20193;-78
2023/07/25 03:03:29;;;;;;;13.27;2.30;;;17.10;99.90;;;;;;7285907;19;20226;-77
2023/07/25 03:05:55;;;;;;;10.70;2.30;;;16.80;99.90;;;;;;7285149;19;20189;-78
2023/07/25 03:08:24;;;;;;;7.53;2.00;;;16.60;99.90;;;;;;7285768;19;20279;-77
2023/07/25 03:10:49;;;;;;;8.93;2.33;;;16.60;99.90;;;;;;7309021;19;20200;-79
2023/07/25 03:13:16;;;;;;;8.13;2.03;;;16.60;99.90;;;;;;7285310;19;20183;-78
2023/07/25 03:15:41;;;;;;;7.87;2.20;;;16.60;99.90;;;;;;7286456;19;20189;-78
2023/07/25 03:18:07;;;;;;;7.77;2.20;;;16.40;99.90;;;;;;7287247;19;20188;-78
2023/07/25 03:20:33;;;;;;;8.90;2.10;;;16.50;99.90;;;;;;7286116;19;20217;-77
2023/07/25 03:22:59;;;;;;;7.67;1.97;;;16.60;99.90;;;;;;7287525;19;20180;-77
2023/07/25 03:25:24;;;;;;;10.73;2.70;;;16.50;99.90;;;;;;7287818;19;20180;-78
2023/07/25 03:27:51;;;;;;;7.80;2.00;;;16.60;99.90;;;;;;7306220;19;20719;-77
2023/07/25 03:30:17;;;;;;;7.63;1.90;;;16.60;99.90;;;;;;7286970;19;20198;-77
2023/07/25 03:32:43;;;;;;;9.70;2.10;;;16.50;99.90;;;;;;7285130;19;20658;-78
2023/07/25 03:35:08;;;;;;;10.80;2.17;;;16.40;99.90;;;;;;7284558;19;20189;-78
2023/07/25 03:37:34;;;;;;;9.40;2.20;;;16.20;99.90;;;;;;7287289;19;20188;-78
2023/07/25 03:40:00;;;;;;;11.97;2.40;;;16.20;99.90;;;;;;7286638;19;20226;-77
2023/07/25 03:42:26;;;;;;;9.30;2.47;;;16.30;99.90;;;;;;7284054;19;20199;-76
2023/07/25 03:44:52;;;;;;;14.17;2.80;;;16.40;99.90;;;;;;7292212;19;20188;-77
2023/07/25 03:47:18;;;;;;;11.33;2.50;;;16.50;99.90;;;;;;7306923;19;20697;-77
2023/07/25 03:49:45;;;;;;;10.97;2.67;;;16.40;99.90;;;;;;7285048;19;20267;-77
2023/07/25 03:52:11;;;;;;;8.63;2.47;;;16.50;99.90;;;;;;7286099;19;20198;-77
2023/07/25 03:54:37;;;;;;;9.47;2.70;;;16.70;99.90;;;;;;7285208;19;20645;-77
2023/07/25 03:57:03;;;;;;;13.83;2.80;;;16.80;99.90;;;;;;7285547;19;20187;-76
2023/07/25 03:59:29;;;;;;;11.43;2.70;;;16.80;99.90;;;;;;7283105;19;20259;-76
2023/07/25 04:01:55;;;;;;;11.53;2.87;;;16.60;99.90;;;;;;7283908;19;20255;-76
2023/07/25 04:04:21;;;;;;;12.03;2.77;;;16.40;99.90;;;;;;7304115;19;20193;-76
2023/07/25 04:06:47;;;;;;;12.43;3.43;;;16.50;99.90;;;;;;7300946;19;20251;-77
2023/07/25 04:09:13;;;;;;;14.30;2.97;;;16.50;99.90;;;;;;7285620;19;20214;-77
2023/07/25 04:11:38;;;;;;;10.70;2.77;;;16.40;99.90;;;;;;7284928;19;20202;-77
2023/07/25 04:14:04;;;;;;;7.23;2.70;;;16.50;99.90;;;;;;7284126;19;20658;-78
2023/07/25 04:16:30;;;;;;;10.47;3.07;;;16.40;99.90;;;;;;7283880;19;20199;-77
2023/07/25 04:18:55;;;;;;;9.07;2.70;;;16.30;99.90;;;;;;7283549;19;20684;-77
2023/07/25 04:21:21;;;;;;;10.07;3.20;;;16.30;99.90;;;;;;7298663;19;20878;-76
2023/07/25 04:23:47;;;;;;;10.57;2.83;;;16.10;99.90;;;;;;7297796;19;20205;-76
2023/07/25 04:26:12;;;;;;;12.97;3.10;;;16.10;99.90;;;;;;7281045;19;20744;-77
2023/07/25 04:28:38;;;;;;;16.47;3.47;;;16.20;99.90;;;;;;7280262;19;20648;-77
2023/07/25 04:31:04;;;;;;;11.90;3.43;;;16.30;99.90;;;;;;7280459;19;20197;-77
2023/07/25 04:33:30;;;;;;;12.67;3.43;;;16.40;99.90;;;;;;7284671;19;20193;-77
2023/07/25 04:35:56;;;;;;;10.93;3.37;;;16.60;99.90;;;;;;7282758;19;20185;-77
2023/07/25 04:38:21;;;;;;;10.53;3.57;;;16.60;99.90;;;;;;7296320;19;20204;-76
2023/07/25 04:40:47;;;;;;;12.03;4.10;;;16.50;99.90;;;;;;7301982;19;20196;-76
2023/07/25 04:43:13;;;;;;;11.67;3.60;;;16.50;99.90;;;;;;7282918;19;20203;-77
2023/07/25 04:45:39;;;;;;;12.83;3.77;;;16.60;99.90;;;;;;7280405;19;20522;-77
2023/07/25 04:48:05;;;;;;;14.03;3.63;;;16.70;99.90;;;;;;7282322;19;20192;-77
2023/07/25 04:50:31;;;;;;;12.77;3.87;;;16.70;99.90;;;;;;7283973;19;20196;-77
2023/07/25 04:52:56;;;;;;;15.43;4.27;;;16.90;99.90;;;;;;7284790;19;20217;-77
2023/07/25 04:55:22;;;;;;;10.37;3.90;;;17.00;99.90;;;;;;7287768;19;20188;-77
2023/07/25 04:57:50;;;;;;;17.20;4.33;;;17.00;99.90;;;;;;7305299;19;20670;-77
2023/07/25 05:00:16;;;;;;;9.50;3.80;;;17.00;99.90;;;;;;7281890;19;20189;-77
2023/07/25 05:02:41;;;;;;;14.93;4.60;;;17.10;99.90;;;;;;7283428;19;20302;-77
2023/07/25 05:05:07;;;;;;;12.07;4.77;;;17.10;99.90;;;;;;7282814;19;20193;-78
2023/07/25 05:07:33;;;;;;;15.90;4.67;;;17.10;99.90;;;;;;7282759;19;20191;-77
2023/07/25 05:09:59;;;;;;;14.53;4.40;;;17.00;99.90;;;;;;7283610;19;20684;-77
2023/07/25 05:12:25;;;;;;;12.87;4.60;;;16.70;99.90;;;;;;7282170;19;20192;-77
2023/07/25 05:14:51;;;;;;;15.23;4.57;;;16.60;99.90;;;;;;7303231;19;20186;-76
2023/07/25 05:17:16;;;;;;;10.60;4.43;;;16.60;99.90;;;;;;7291053;19;20712;-76
2023/07/25 05:19:42;;;;;;;11.43;4.80;;;16.70;99.90;;;;;;7282258;19;20186;-77
2023/07/25 05:22:08;;;;;;;13.57;4.33;;;16.90;99.90;;;;;;7282581;19;20181;-77
2023/07/25 05:24:33;;;;;;;13.47;4.90;;;16.90;99.90;;;;;;7281015;19;20707;-77
2023/07/25 05:26:59;;;;;;;13.27;4.40;;;16.90;99.90;;;;;;7280435;19;20192;-77
2023/07/25 05:29:25;;;;;;;11.30;4.63;;;17.00;99.90;;;;;;7280057;19;20203;-76
2023/07/25 05:31:50;;;;;;;13.60;4.53;;;17.00;99.90;;;;;;7304799;19;20755;-77
2023/07/25 05:34:16;;;;;;;15.53;4.57;;;17.20;99.90;;;;;;7281843;19;20208;-76
2023/07/25 05:36:42;;;;;;;11.23;4.20;;;17.20;99.90;;;;;;7281122;19;20190;-76
2023/07/25 05:39:07;;;;;;;12.23;4.67;;;17.30;99.90;;;;;;7282159;19;20189;-77
2023/07/25 05:41:33;;;;;;;13.23;4.30;;;17.40;99.90;;;;;;7281830;19;20189;-76
2023/07/25 05:43:59;;;;;;;12.10;4.80;;;17.40;99.90;;;;;;7281176;19;20645;-77
2023/07/25 05:46:24;;;;;;;13.80;4.77;;;17.30;99.90;;;;;;7282541;19;20287;-76
2023/07/25 05:48:50;;;;;;;16.33;4.43;;;17.30;99.90;;;;;;7302915;19;20180;-77
2023/07/25 05:51:16;;;;;;;14.10;4.50;;;17.40;99.90;;;;;;7281293;19;20208;-77
2023/07/25 05:53:41;;;;;;;14.13;5.00;;;17.30;99.90;;;;;;7282600;19;20273;-76
2023/07/25 05:56:07;;;;;;;17.03;4.27;;;17.20;99.90;;;;;;7280534;19;20636;-76
2023/07/25 05:58:33;;;;;;;13.90;5.33;;;17.10;99.90;;;;;;7280457;19;20216;-77
2023/07/25 06:00:59;;;;;;;12.77;5.03;;;17.00;99.90;;;;;;7280530;19;20243;-76
2023/07/25 06:03:26;;;;;;;15.80;5.43;;;16.90;99.90;;;;;;7281010;19;20193;-76
2023/07/25 06:05:52;;;;;;;16.47;5.53;;;17.10;99.90;;;;;;7292113;19;20184;-76
2023/07/25 06:08:17;;;;;;;16.20;5.83;;;17.30;99.90;;;;;;7297346;19;20272;-76
2023/07/25 06:10:43;;;;;;;13.63;6.20;;;17.60;99.90;;;;;;7278872;19;20287;-77
2023/07/25 06:13:09;;;;;;;18.03;6.03;;;17.60;99.90;;;;;;7280670;19;20203;-77
2023/07/25 06:15:35;;;;;;;14.37;5.70;;;17.60;99.90;;;;;;7278728;19;20192;-76
2023/07/25 06:18:01;;;;;;;14.87;5.90;;;17.70;99.90;;;;;;7279027;19;20197;-76
2023/07/25 06:20:27;;;;;;;13.70;5.67;;;17.70;99.90;;;;;;7279229;19;20213;-76
2023/07/25 06:22:53;;;;;;;10.87;5.67;;;17.90;99.90;;;;;;7281692;19;20249;-75
2023/07/25 06:25:19;;;;;;;15.87;6.03;;;17.90;99.90;;;;;;7302562;19;20190;-76
2023/07/25 06:27:44;;;;;;;14.60;5.20;;;17.90;99.90;;;;;;7281579;19;20188;-77
2023/07/25 06:30:10;;;;;;;14.97;4.83;;;18.00;99.90;;;;;;7282816;19;20185;-76
2023/07/25 06:32:37;;;;;;;11.30;4.73;;;18.20;99.90;;;;;;7281908;19;20200;-77
2023/07/25 06:35:04;;;;;;;11.00;4.57;;;18.50;99.90;;;;;;7282866;19;20189;-76
2023/07/25 06:37:33;;;;;;;14.83;4.93;;;18.60;99.90;;;;;;7283136;19;20189;-76
2023/07/25 06:40:00;;;;;;;14.13;4.53;;;18.70;99.90;;;;;;7281550;19;20210;-76
2023/07/25 06:42:29;;;;;;;13.80;4.30;;;18.80;99.90;;;;;;7281113;19;20218;-76
2023/07/25 06:44:57;;;;;;;12.67;4.30;;;18.60;99.90;;;;;;7283572;19;20201;-76
2023/07/25 06:47:24;;;;;;;14.03;4.67;;;18.70;99.90;;;;;;7284272;19;20192;-77
2023/07/25 06:49:50;;;;;;;13.67;4.93;;;18.70;99.90;;;;;;7306046;19;20188;-76
2023/07/25 06:52:15;;;;;;;11.43;4.57;;;18.70;99.90;;;;;;7284329;19;20187;-77
2023/07/25 06:54:43;;;;;;;17.37;4.57;;;18.60;99.90;;;;;;7286081;19;20202;-76
2023/07/25 06:57:09;;;;;;;13.73;4.07;;;18.80;99.90;;;;;;7286489;19;20189;-76
2023/07/25 06:59:34;;;;;;;11.90;4.50;;;18.90;99.90;;;;;;7284466;19;20192;-76
2023/07/25 07:02:00;;;;;;;11.47;3.73;;;18.70;99.90;;;;;;7285481;19;20270;-77
2023/07/25 07:04:26;;;;;;;13.63;4.10;;;18.70;99.90;;;;;;7284960;19;20220;-76
2023/07/25 07:06:51;;;;;;;14.17;3.70;;;18.80;99.90;;;;;;7303054;19;20338;-75
2023/07/25 07:09:17;;;;;;;11.27;3.90;;;18.90;99.90;;;;;;7296839;19;20677;-76
2023/07/25 07:11:43;;;;;;;10.90;3.70;;;19.00;99.90;;;;;;7285584;19;20235;-76
2023/07/25 07:14:09;;;;;;;14.13;3.40;;;19.10;99.90;;;;;;7284345;19;20201;-76
2023/07/25 07:16:35;;;;;;;12.30;2.93;;;19.20;99.90;;;;;;7285237;19;20192;-76
2023/07/25 07:19:01;;;;;;;10.93;3.27;;;18.90;99.90;;;;;;7284854;19;20183;-78
2023/07/25 07:21:26;;;;;;;11.93;3.40;;;18.90;99.90;;;;;;7285560;19;20221;-77
2023/07/25 07:23:52;;;;;;;13.30;3.33;;;19.10;99.90;;;;;;7295902;19;20268;-76
2023/07/25 07:26:18;;;;;;;13.40;3.23;;;19.20;99.90;;;;;;7301370;19;20195;-77
2023/07/25 07:28:43;;;;;;;11.03;3.17;;;19.30;99.90;;;;;;7285858;19;20218;-77
2023/07/25 07:31:11;;;;;;;11.13;2.67;;;19.40;99.90;;;;;;7285642;19;20197;-77
2023/07/25 07:33:37;;;;;;;10.13;3.20;;;19.50;99.90;;;;;;7283392;19;20658;-77
2023/07/25 07:36:03;;;;;;;11.47;3.00;;;19.50;99.90;;;;;;7283516;19;20186;-77
2023/07/25 07:38:28;;;;;;;8.97;2.80;;;19.30;99.90;;;;;;7284870;19;20784;-77
2023/07/25 07:40:54;;;;;;;9.63;2.20;;;19.20;99.90;;;;;;7283113;19;20215;-76
2023/07/25 07:43:20;;;;;;;9.50;2.30;;;19.40;99.90;;;;;;7306586;19;20201;-77
2023/07/25 07:45:46;;;;;;;7.57;2.40;;;19.50;99.90;;;;;;7284208;19;20284;-77
2023/07/25 07:48:12;;;;;;;7.27;2.10;;;19.50;99.90;;;;;;7283328;19;20236;-77
2023/07/25 07:50:37;;;;;;;11.20;2.30;;;19.50;99.90;;;;;;7285036;19;20200;-76
2023/07/25 07:53:03;;;;;;;8.80;2.40;;;19.50;99.90;;;;;;7283325;19;20202;-77
2023/07/25 07:55:29;;;;;;;9.33;2.20;;;19.70;99.90;;;;;;7283188;19;20252;-77
2023/07/25 07:57:55;;;;;;;8.27;2.10;;;20.20;99.90;;;;;;7284687;19;20189;-76
2023/07/25 08:00:21;;;;;;;9.43;1.93;;;20.80;99.90;;;;;;7304948;19;20183;-76
2023/07/25 08:02:47;;;;;;;7.90;1.83;;;21.20;99.90;;;;;;7284592;19;20218;-77
2023/07/25 08:05:13;;;;;;;6.30;1.63;;;20.80;99.90;;;;;;7282390;19;20180;-77
2023/07/25 08:07:41;;;;;;;10.40;2.30;;;20.60;99.90;;;;;;7283720;19;20203;-80
2023/07/25 08:10:07;;;;;;;9.87;1.90;;;20.40;99.90;;;;;;7284932;19;20193;-77
2023/07/25 08:12:33;;;;;;;8.07;1.80;;;20.20;99.90;;;;;;7283444;19;20186;-77
2023/07/25 08:14:59;;;;;;;7.63;1.87;;;20.30;99.90;;;;;;7283276;19;20283;-77
2023/07/25 08:17:24;;;;;;;9.03;1.87;;;21.40;99.90;;;;;;7282844;19;20187;-77
2023/07/25 08:19:50;;;;;;;7.87;1.93;;;22.50;99.90;;;;;;7303928;19;20573;-77
2023/07/25 08:22:16;;;;;;;9.17;1.67;;;22.20;99.90;;;;;;7284374;19;20185;-77
2023/07/25 08:24:43;;;;;;;10.43;2.30;;;21.40;99.90;;;;;;7282872;19;20612;-75
2023/07/25 08:27:08;;;;;;;7.43;2.00;;;20.60;99.90;;;;;;7282985;19;20195;-76
2023/07/25 08:29:39;;;;;;;7.30;1.70;;;20.40;99.90;;;;;;7283543;19;20653;-76
2023/07/25 08:32:06;;;;;;;7.90;1.80;;;20.70;99.90;;;;;;7282612;19;20265;-76
2023/07/25 08:34:31;;;;;;;7.33;1.80;;;20.90;99.90;;;;;;7282202;19;20186;-75
2023/07/25 08:36:57;;;;;;;11.50;1.60;;;21.10;99.90;;;;;;7280649;19;20216;-75
2023/07/25 08:39:23;;;;;;;8.27;1.40;;;21.70;99.90;;;;;;7287037;19;20712;-75
2023/07/25 08:41:53;;;;;;;8.33;1.93;;;21.50;99.90;;;;;;7304345;19;20187;-76
2023/07/25 08:44:24;;;;;;;6.60;1.40;;;21.20;99.90;;;;;;7283308;19;20262;-76
2023/07/25 08:46:53;;;;;;;11.70;2.00;;;21.00;99.90;;;;;;7282264;19;20208;-76
2023/07/25 08:49:24;;;;;;;11.60;1.87;;;20.80;99.90;;;;;;7284319;19;20199;-76
2023/07/25 08:51:55;;;;;;;7.43;1.40;;;20.70;99.90;;;;;;7283193;19;20959;-77
2023/07/25 08:54:31;;;;;;;9.00;1.47;;;20.50;99.90;;;;;;7282202;19;20204;-76
2023/07/25 08:56:57;;;;;;;14.00;1.43;;;20.20;99.90;;;;;;7180725;19;2005980;-76
2023/07/25 08:59:24;;;;;;;12.00;1.37;;;19.90;99.90;;;;;;7286157;19;20187;-76
2023/07/25 09:01:52;;;;;;;11.80;1.63;;;19.60;99.90;;;;;;7303698;19;20663;-76
2023/07/25 09:04:19;;;;;;;10.37;1.73;;;19.60;99.90;;;;;;7280928;19;20185;-77
2023/07/25 09:06:45;;;;;;;9.50;1.67;;;19.60;99.90;;;;;;7279824;19;20187;-76
2023/07/25 09:09:11;;;;;;;9.60;1.50;;;19.80;99.90;;;;;;7282854;19;20660;-76
2023/07/25 09:11:37;;;;;;;10.07;1.80;;;19.80;99.90;;;;;;7282172;19;20203;-76
2023/07/25 09:14:03;;;;;;;7.17;1.93;;;19.90;99.90;;;;;;7280806;19;20205;-76
2023/07/25 09:16:33;;;;;;;11.77;2.00;;;20.10;99.90;;;;;;7281586;19;20182;-76
2023/07/25 09:18:58;;;;;;;9.50;1.40;;;20.10;99.90;;;;;;7281356;19;20214;-76
2023/07/25 09:21:24;;;;;;;8.87;1.63;;;20.00;99.90;;;;;;7281649;19;20241;-76
2023/07/25 09:24:00;;;;;;;10.93;2.17;;;19.80;99.90;;;;;;7302836;19;20196;-76
2023/07/25 09:26:30;;;;;;;7.43;1.70;;;19.60;99.90;;;;;;7259740;19;20221;-75
2023/07/25 09:28:57;;;;;;;9.83;1.70;;;19.60;99.90;;;;;;7282435;19;20188;-77
2023/07/25 09:31:24;;;;;;;9.27;1.80;;;19.40;99.90;;;;;;7285619;19;20647;-76
2023/07/25 09:33:52;;;;;;;13.37;1.80;;;19.50;99.90;;;;;;7304195;19;20189;-77
2023/07/25 09:36:18;;;;;;;11.73;1.80;;;19.60;99.90;;;;;;7281137;19;20205;-76
2023/07/25 09:38:49;;;;;;;9.07;1.57;;;19.70;99.90;;;;;;7280302;19;20207;-76
2023/07/25 09:41:15;;;;;;;11.60;1.90;;;19.70;99.90;;;;;;7281842;19;20200;-76
2023/07/25 09:43:41;;;;;;;10.80;1.90;;;19.90;99.90;;;;;;7280275;19;20205;-76
2023/07/25 09:46:07;;;;;;;7.27;1.57;;;20.50;99.90;;;;;;7279333;19;20194;-77
2023/07/25 09:48:33;;;;;;;5.80;1.50;;;20.90;99.90;;;;;;7281658;19;20652;-75
2023/07/25 09:51:01;;;;;;;10.03;1.60;;;21.30;99.90;;;;;;7282210;19;20190;-76
2023/07/25 09:53:27;;;;;;;7.33;1.67;;;21.70;99.90;;;;;;7280433;19;20219;-78
2023/07/25 09:55:53;;;;;;;8.67;1.50;;;21.60;99.90;;;;;;7284695;19;20203;-75
2023/07/25 09:58:19;;;;;;;5.70;1.53;;;21.60;99.90;;;;;;7303639;19;20530;-77
2023/07/25 10:00:46;;;;;;;6.67;1.30;;;21.50;99.90;;;;;;7280358;19;20356;-76
2023/07/25 10:03:12;;;;;;;6.93;1.57;;;21.50;99.90;;;;;;7281722;19;20208;-77
2023/07/25 10:05:44;;;;;;;8.37;1.90;;;21.30;99.90;;;;;;7280570;19;20189;-76
2023/07/25 10:08:15;;;;;;;8.07;2.00;;;21.40;99.90;;;;;;7280134;19;20195;-77
2023/07/25 10:10:42;;;;;;;9.50;2.00;;;20.80;99.90;;;;;;7281333;19;20535;-78
2023/07/25 10:13:09;;;;;;;11.40;2.23;;;20.60;99.90;;;;;;7282217;19;20203;-78
2023/07/25 10:15:35;;;;;;;7.47;2.10;;;20.60;99.90;;;;;;7279963;19;20198;-77
2023/07/25 10:18:24;;;;;;;9.03;2.43;;;20.60;99.90;;;;;;7289213;19;20190;-76
2023/07/25 10:20:51;;;;;;;10.83;2.43;;;20.60;99.90;;;;;;7290169;19;20188;-77
2023/07/25 10:23:17;;;;;;;7.87;2.17;;;20.50;99.90;;;;;;7289233;19;20188;-77
2023/07/25 10:25:43;;;;;;;10.23;2.00;;;20.40;99.90;;;;;;7289933;19;20182;-77
2023/07/25 10:28:11;;;;;;;6.87;2.27;;;20.40;99.90;;;;;;7289690;19;20535;-77
2023/07/25 10:30:44;;;;;;;12.20;2.47;;;20.50;99.90;;;;;;7290122;19;20562;-77
2023/07/25 10:33:15;;;;;;;8.80;2.10;;;20.60;99.90;;;;;;7290026;19;20194;-77
2023/07/25 10:35:49;;;;;;;8.87;2.13;;;20.70;99.90;;;;;;7287090;19;20197;-77
2023/07/25 10:38:20;;;;;;;11.00;2.57;;;20.80;99.90;;;;;;7286315;19;20186;-77
2023/07/25 10:40:52;;;;;;;10.73;2.10;;;20.90;99.90;;;;;;7287022;19;20192;-77
2023/07/25 10:43:20;;;;;;;7.13;1.60;;;21.00;99.90;;;;;;7288005;19;20184;-76
2023/07/25 10:45:47;;;;;;;7.33;1.40;;;21.00;99.90;;;;;;7286904;19;20536;-77
2023/07/25 10:48:34;;;;;;;8.87;1.70;;;21.00;99.90;;;;;;7285708;19;20278;-77
2023/07/25 10:51:03;;;;;;;3.53;1.30;;;20.90;99.90;;;;;;7184212;19;2004705;-77
2023/07/25 10:53:29;;;;;;;5.53;1.50;;;20.80;99.90;;;;;;7286023;19;20649;-76
2023/07/25 10:56:04;;;;;;;7.63;1.30;;;20.90;99.90;;;;;;7283992;19;20211;-76
2023/07/25 10:58:39;;;;;;;4.17;1.30;;;20.80;99.90;;;;;;7287107;19;20198;-77
2023/07/25 11:01:06;;;;;;;10.10;1.53;;;20.90;99.90;;;;;;7284767;19;20195;-77
2023/07/25 11:03:36;;;;;;;7.70;1.47;;;20.70;99.90;;;;;;7283722;19;20315;-77
2023/07/25 11:06:07;;;;;;;5.17;1.50;;;20.60;99.90;;;;;;7284843;19;20266;-77
2023/07/25 11:08:37;;;;;;;8.77;2.20;;;20.70;99.90;;;;;;7286280;19;20204;-77
2023/07/25 11:11:05;;;;;;;8.77;1.47;;;20.70;99.90;;;;;;7286851;19;20195;-76
2023/07/25 11:13:34;;;;;;;7.27;1.40;;;20.80;99.90;;;;;;7283799;19;20669;-76
2023/07/25 11:16:06;;;;;;;6.70;1.27;;;20.80;99.90;;;;;;7284151;19;20249;-77
2023/07/25 11:18:37;;;;;;;6.47;1.43;;;20.80;99.90;;;;;;7285138;19;20193;-76
2023/07/25 11:21:07;;;;;;;10.20;1.40;;;20.90;99.90;;;;;;7285798;19;20186;-77
2023/07/25 11:23:34;;;;;;;6.67;1.53;;;21.30;99.90;;;;;;7284445;19;20191;-77
2023/07/25 11:26:12;;;;;;;7.43;1.43;;;21.70;99.90;;;;;;7283362;19;20196;-76
2023/07/25 11:28:39;;;;;;;5.73;1.27;;;21.80;99.90;;;;;;7282057;19;20576;-76
2023/07/25 11:31:04;;;;;;;10.03;1.50;;;22.10;99.90;;;;;;7283877;19;20541;-76
2023/07/25 11:33:37;;;;;;;9.07;1.20;;;22.60;99.90;;;;;;7284156;19;20184;-76
2023/07/25 11:36:04;;;;;;;4.50;0.97;;;23.40;99.90;;;;;;7283856;19;20276;-75
2023/07/25 11:38:29;;;;;;;7.33;1.23;;;24.20;99.90;;;;;;7284714;19;20185;-77
2023/07/25 11:40:56;;;;;;;5.97;1.50;;;25.10;99.90;;;;;;7284042;19;20189;-76
2023/07/25 11:43:22;;;;;;;5.77;1.47;;;25.40;99.90;;;;;;7308956;19;20177;-76
2023/07/25 11:45:48;;;;;;;8.43;1.60;;;24.90;99.90;;;;;;7286313;19;20195;-76
2023/07/25 11:48:17;;;;;;;7.13;1.30;;;24.20;99.90;;;;;;7285286;19;21086;-76
2023/07/25 11:50:43;;;;;;;8.13;1.20;;;24.40;99.90;;;;;;7289296;19;20205;-76
2023/07/25 11:53:10;;;;;;;6.50;0.90;;;25.10;99.90;;;;;;7285204;19;20189;-76
2023/07/25 11:55:37;;;;;;;6.00;1.20;;;25.60;99.90;;;;;;7282978;19;20197;-77
2023/07/25 11:58:02;;;;;;;8.67;1.50;;;25.90;99.90;;;;;;7284242;19;20659;-76
2023/07/25 12:00:39;;;;;;;6.37;1.40;;;26.30;99.90;;;;;;7283169;19;20188;-76
2023/07/25 12:03:19;;;;;;;6.85;1.40;;;26.40;99.90;;;;;;7283613;19;20193;-77
2023/07/25 12:05:53;;;;;;;5.20;1.00;;;26.60;99.90;;;;;;7283084;19;20238;-76
2023/07/25 12:08:48;;;;;;;4.38;1.00;;;28.00;99.90;;;;;;7283224;19;20197;-76
2023/07/25 12:11:15;;;;;;;9.02;1.58;;;29.00;99.90;;;;;;7181486;19;2004560;-77
2023/07/25 12:13:45;;;;;;;6.80;1.10;;;29.70;97.90;;;;;;7283626;19;20665;-76
2023/07/25 12:16:24;;;;;;;7.85;1.10;;;29.60;94.30;;;;;;7282036;19;20649;-76
2023/07/25 12:18:52;;;;;;;6.95;1.55;;;28.00;99.40;;;;;;7283057;19;20271;-77
2023/07/25 12:21:24;;;;;;;7.88;1.60;;;27.40;99.90;;;;;;7284535;19;20656;-76
2023/07/25 12:23:52;;;;;;;8.35;1.45;;;26.50;99.90;;;;;;7283323;19;20196;-77
2023/07/25 12:26:20;;;;;;;7.63;1.42;;;26.30;99.90;;;;;;7283963;19;20260;-76
2023/07/25 12:28:47;;;;;;;6.95;1.40;;;26.40;99.90;;;;;;7283111;19;20213;-76
2023/07/25 12:31:13;;;;;;;9.40;1.50;;;26.20;99.90;;;;;;7283569;19;20210;-76
2023/07/25 12:33:43;;;;;;;9.07;1.73;;;25.70;99.90;;;;;;7282727;19;20210;-77
2023/07/25 12:36:09;;;;;;;6.43;1.53;;;25.20;99.90;;;;;;7282013;19;20224;-77
2023/07/25 12:38:36;;;;;;;7.43;1.50;;;25.10;99.90;;;;;;7283101;19;20220;-75